createdAt,value
2023-02-27T00:01:18.665Z,0.20
2023-02-27T00:04:21.816Z,0.27
2023-02-27T00:07:26.267Z,0.27
2023-02-27T00:10:29.196Z,0.25
2023-02-27T00:13:31.774Z,0.15
2023-02-27T00:16:34.794Z,0.18
2023-02-27T00:19:37.971Z,0.13
2023-02-27T00:22:42.046Z,0.11
2023-02-27T00:25:44.701Z,0.08
2023-02-27T00:28:47.874Z,0.05
2023-02-27T00:31:51.057Z,0.02
2023-02-27T00:34:54.142Z,-0.01
2023-02-27T00:37:56.805Z,-0.03
2023-02-27T00:40:59.865Z,-0.04
2023-02-27T00:44:02.672Z,-0.03
2023-02-27T00:47:05.542Z,0.00
2023-02-27T00:50:10.282Z,-0.02
2023-02-27T00:53:13.495Z,-0.10
2023-02-27T00:56:16.172Z,-0.05
2023-02-27T00:59:19.598Z,-0.07
2023-02-27T01:02:22.740Z,-0.09
2023-02-27T01:05:25.811Z,-0.13
2023-02-27T01:08:28.567Z,-0.16
2023-02-27T01:11:32.125Z,-0.20
2023-02-27T01:14:36.467Z,-0.29
2023-02-27T01:17:39.476Z,-0.21
2023-02-27T01:20:42.155Z,-0.21
2023-02-27T01:23:48.142Z,-0.21
2023-02-27T01:26:54.649Z,-0.21
2023-02-27T01:29:57.669Z,-0.22
2023-02-27T01:33:00.374Z,-0.22
2023-02-27T01:36:03.597Z,-0.23
2023-02-27T01:39:06.409Z,-0.23
2023-02-27T01:42:35.817Z,-0.25
2023-02-27T01:45:42.219Z,-0.24
2023-02-27T01:48:45.436Z,-0.28
2023-02-27T01:52:02.069Z,-0.25
2023-02-27T01:55:08.607Z,-0.26
2023-02-27T01:58:13.757Z,-0.25
2023-02-27T02:01:17.408Z,-0.34
2023-02-27T02:04:29.842Z,-0.26
2023-02-27T02:07:34.965Z,-0.26
2023-02-27T02:10:39.903Z,-0.34
2023-02-27T02:13:43.199Z,-0.27
2023-02-27T02:16:54.745Z,-0.28
2023-02-27T02:20:22.590Z,-0.27
2023-02-27T02:23:56.019Z,-0.28
2023-02-27T02:27:05.085Z,-0.29
2023-02-27T02:30:32.831Z,-0.38
2023-02-27T02:34:10.529Z,-0.30
2023-02-27T02:37:34.608Z,-0.31
2023-02-27T02:40:59.627Z,-0.31
2023-02-27T02:44:28.993Z,-0.34
2023-02-27T02:47:59.342Z,-0.36
2023-02-27T02:52:00.806Z,-0.38
2023-02-27T02:55:18.702Z,-0.44
2023-02-27T02:58:21.324Z,-0.45
2023-02-27T03:01:31.494Z,-0.59
2023-02-27T03:04:44.512Z,-0.52
2023-02-27T03:08:16.099Z,-0.55
2023-02-27T03:11:20.272Z,-0.58
2023-02-27T03:14:42.041Z,-0.60
2023-02-27T03:18:01.564Z,-0.62
2023-02-27T03:21:10.604Z,-0.62
2023-02-27T03:24:20.984Z,-0.66
2023-02-27T03:27:30.377Z,-0.67
2023-02-27T03:31:01.028Z,-0.68
2023-02-27T03:34:30.417Z,-0.79
2023-02-27T03:37:43.737Z,-0.71
2023-02-27T03:40:54.095Z,-0.72
2023-02-27T03:44:11.314Z,-0.74
2023-02-27T03:47:14.321Z,-0.75
2023-02-27T03:50:17.479Z,-0.76
2023-02-27T03:53:41.641Z,-0.85
2023-02-27T03:57:06.039Z,-0.78
2023-02-27T04:00:13.568Z,-0.79
2023-02-27T04:03:16.392Z,-0.77
2023-02-27T04:06:37.889Z,-0.78
2023-02-27T04:10:07.956Z,-0.87
2023-02-27T04:13:25.887Z,-0.79
2023-02-27T04:16:42.653Z,-0.80
2023-02-27T04:20:20.692Z,-0.80
2023-02-27T04:23:50.958Z,-0.82
2023-02-27T04:27:23.535Z,-0.84
2023-02-27T04:30:55.666Z,-0.86
2023-02-27T04:34:07.269Z,-0.89
2023-02-27T04:37:22.573Z,-0.90
2023-02-27T04:40:42.508Z,-1.00
2023-02-27T04:43:47.731Z,-0.99
2023-02-27T04:46:52.660Z,-0.99
2023-02-27T04:50:00.986Z,-0.91
2023-02-27T04:53:47.508Z,-1.01
2023-02-27T04:56:54.790Z,-0.90
2023-02-27T05:00:01.516Z,-0.91
2023-02-27T05:03:16.694Z,-0.90
2023-02-27T05:06:25.789Z,-1.00
2023-02-27T05:09:40.974Z,-0.91
2023-02-27T05:13:17.241Z,-0.92
2023-02-27T05:16:41.874Z,-0.92
2023-02-27T05:19:46.895Z,-0.93
2023-02-27T05:22:54.560Z,-1.02
2023-02-27T05:26:04.367Z,-0.95
2023-02-27T05:29:27.961Z,-0.98
2023-02-27T05:32:51.174Z,-1.06
2023-02-27T05:36:15.591Z,-1.07
2023-02-27T05:39:22.781Z,-0.98
2023-02-27T05:42:37.049Z,-0.99
2023-02-27T05:45:43.601Z,-0.98
2023-02-27T05:49:01.595Z,-0.98
2023-02-27T05:52:10.650Z,-1.03
2023-02-27T05:55:22.332Z,-0.94
2023-02-27T05:58:38.928Z,-0.87
2023-02-27T06:01:41.660Z,-0.92
2023-02-27T06:04:44.720Z,-0.79
2023-02-27T06:07:47.345Z,-0.83
2023-02-27T06:10:50.355Z,-0.69
2023-02-27T06:13:53.070Z,-0.63
2023-02-27T06:16:56.086Z,-0.54
2023-02-27T06:19:59.100Z,-0.47
2023-02-27T06:23:02.297Z,-0.49
2023-02-27T06:26:05.085Z,-0.30
2023-02-27T06:29:08.098Z,-0.22
2023-02-27T06:32:10.783Z,-0.21
2023-02-27T06:35:13.966Z,-0.12
2023-02-27T06:38:16.754Z,-0.03
2023-02-27T06:41:19.673Z,0.03
2023-02-27T06:44:22.423Z,0.07
2023-02-27T06:47:25.552Z,0.08
2023-02-27T06:50:28.658Z,0.05
2023-02-27T06:53:31.735Z,0.05
2023-02-27T06:56:34.392Z,0.04
2023-02-27T06:59:37.329Z,-0.03
2023-02-27T07:02:40.911Z,-0.04
2023-02-27T07:05:43.887Z,-0.02
2023-02-27T07:09:01.661Z,-0.05
2023-02-27T07:12:09.555Z,-0.07
2023-02-27T07:15:12.274Z,-0.15
2023-02-27T07:18:15.406Z,-0.02
2023-02-27T07:21:18.180Z,0.07
2023-02-27T07:24:21.338Z,0.13
2023-02-27T07:27:23.956Z,0.25
2023-02-27T07:30:27.058Z,0.30
2023-02-27T07:33:30.119Z,0.40
2023-02-27T07:36:34.167Z,0.44
2023-02-27T07:39:36.865Z,0.45
2023-02-27T07:42:40.466Z,0.56
2023-02-27T07:45:43.247Z,0.50
2023-02-27T07:48:46.513Z,0.62
2023-02-27T07:51:49.341Z,0.67
2023-02-27T07:54:52.680Z,0.72
2023-02-27T07:57:55.322Z,0.69
2023-02-27T08:00:58.278Z,0.86
2023-02-27T08:04:01.552Z,0.86
2023-02-27T08:07:05.194Z,0.80
2023-02-27T08:10:08.668Z,0.97
2023-02-27T08:13:11.365Z,0.91
2023-02-27T08:16:14.362Z,0.91
2023-02-27T08:19:17.133Z,1.06
2023-02-27T08:22:20.764Z,1.21
2023-02-27T08:25:23.827Z,1.24
2023-02-27T08:28:27.878Z,1.34
2023-02-27T08:31:30.646Z,1.49
2023-02-27T08:34:33.702Z,1.53
2023-02-27T08:37:36.358Z,1.71
2023-02-27T08:40:39.328Z,1.89
2023-02-27T08:43:41.950Z,2.29
2023-02-27T08:46:45.029Z,2.37
2023-02-27T08:49:47.837Z,2.40
2023-02-27T08:52:50.834Z,2.61
2023-02-27T08:55:54.040Z,2.79
2023-02-27T08:58:57.063Z,2.95
2023-02-27T09:02:00.078Z,2.99
2023-02-27T09:05:03.325Z,2.68
2023-02-27T09:08:07.200Z,2.57
2023-02-27T09:11:10.130Z,2.81
2023-02-27T09:14:13.381Z,2.94
2023-02-27T09:17:16.347Z,2.98
2023-02-27T09:20:19.248Z,3.03
2023-02-27T09:23:22.186Z,3.34
2023-02-27T09:26:40.376Z,3.32
2023-02-27T09:29:46.560Z,3.21
2023-02-27T09:32:50.060Z,3.37
2023-02-27T09:35:53.169Z,3.59
2023-02-27T09:38:58.286Z,3.71
2023-02-27T09:42:01.153Z,3.80
2023-02-27T09:45:07.539Z,3.79
2023-02-27T09:48:34.528Z,4.21
2023-02-27T09:51:37.742Z,4.26
2023-02-27T09:54:41.862Z,4.26
2023-02-27T09:58:08.054Z,3.97
2023-02-27T10:01:22.018Z,4.36
2023-02-27T10:04:45.550Z,4.29
2023-02-27T10:08:19.386Z,4.68
2023-02-27T10:11:38.622Z,4.65
2023-02-27T10:15:10.452Z,4.71
2023-02-27T10:18:29.026Z,4.93
2023-02-27T10:21:40.652Z,4.93
2023-02-27T10:24:52.375Z,4.72
2023-02-27T10:28:00.556Z,4.77
2023-02-27T10:31:19.117Z,5.07
2023-02-27T10:34:25.711Z,5.02
2023-02-27T10:37:28.851Z,5.34
2023-02-27T10:40:36.329Z,5.18
2023-02-27T10:43:40.568Z,5.29
2023-02-27T10:46:43.437Z,5.37
2023-02-27T10:49:46.858Z,5.61
2023-02-27T10:52:58.424Z,5.82
2023-02-27T10:56:08.106Z,5.70
2023-02-27T10:59:23.373Z,6.26
2023-02-27T11:02:38.190Z,5.94
2023-02-27T11:05:40.862Z,5.85
2023-02-27T11:08:44.190Z,5.59
2023-02-27T11:11:46.908Z,5.29
2023-02-27T11:14:55.851Z,5.10
2023-02-27T11:18:24.347Z,5.24
2023-02-27T11:21:30.344Z,4.94
2023-02-27T11:24:33.805Z,4.80
2023-02-27T11:27:36.833Z,4.81
2023-02-27T11:30:39.688Z,4.91
2023-02-27T11:33:56.159Z,5.81
2023-02-27T11:37:08.534Z,6.67
2023-02-27T11:40:14.197Z,6.39
2023-02-27T11:43:20.503Z,6.32
2023-02-27T11:46:45.201Z,6.09
2023-02-27T11:49:51.765Z,6.42
2023-02-27T11:53:16.521Z,6.13
2023-02-27T11:56:26.887Z,5.59
2023-02-27T11:59:44.795Z,5.68
2023-02-27T12:03:20.460Z,5.37
2023-02-27T12:06:38.089Z,5.47
2023-02-27T12:09:46.692Z,5.82
2023-02-27T12:12:57.116Z,5.63
2023-02-27T12:16:18.481Z,5.60
2023-02-27T12:19:41.994Z,5.33
2023-02-27T12:22:48.640Z,5.51
2023-02-27T12:25:57.022Z,5.41
2023-02-27T12:29:23.036Z,5.61
2023-02-27T12:32:31.967Z,5.83
2023-02-27T12:35:34.780Z,5.89
2023-02-27T12:38:38.016Z,5.92
2023-02-27T12:41:50.570Z,5.25
2023-02-27T12:45:08.824Z,5.09
2023-02-27T12:48:51.280Z,5.14
2023-02-27T12:52:19.399Z,5.01
2023-02-27T12:55:48.010Z,5.25
2023-02-27T12:59:41.042Z,5.28
2023-02-27T13:03:15.679Z,5.20
2023-02-27T13:06:27.858Z,5.63
2023-02-27T13:09:42.901Z,5.04
2023-02-27T13:12:54.951Z,5.50
2023-02-27T13:16:04.454Z,5.41
2023-02-27T13:19:17.566Z,5.38
2023-02-27T13:22:51.648Z,5.29
2023-02-27T13:25:56.776Z,5.52
2023-02-27T13:29:01.024Z,5.06
2023-02-27T13:32:07.439Z,5.06
2023-02-27T13:35:45.222Z,5.08
2023-02-27T13:38:50.736Z,4.61
2023-02-27T13:41:53.395Z,5.00
2023-02-27T13:45:01.533Z,4.88
2023-02-27T13:48:24.414Z,4.63
2023-02-27T13:51:36.549Z,4.87
2023-02-27T13:54:42.210Z,4.81
2023-02-27T13:57:47.507Z,4.70
2023-02-27T14:00:56.829Z,4.53
2023-02-27T14:04:03.880Z,4.67
2023-02-27T14:07:11.229Z,4.50
2023-02-27T14:10:22.344Z,4.53
2023-02-27T14:13:46.593Z,4.55
2023-02-27T14:16:49.571Z,4.57
2023-02-27T14:19:57.190Z,4.55
2023-02-27T14:23:15.353Z,4.52
2023-02-27T14:26:24.226Z,4.71
2023-02-27T14:29:33.371Z,4.21
2023-02-27T14:32:37.831Z,4.25
2023-02-27T14:35:46.837Z,4.33
2023-02-27T14:38:52.188Z,4.27
2023-02-27T14:42:07.284Z,4.18
2023-02-27T14:45:25.374Z,4.24
2023-02-27T14:48:29.072Z,4.13
2023-02-27T14:51:34.486Z,4.25
2023-02-27T14:54:37.464Z,4.04
2023-02-27T14:57:40.124Z,3.96
2023-02-27T15:01:05.194Z,4.10
2023-02-27T15:04:08.558Z,4.20
2023-02-27T15:07:24.722Z,4.18
2023-02-27T15:10:33.438Z,4.21
2023-02-27T15:13:39.211Z,4.28
2023-02-27T15:16:43.018Z,4.23
2023-02-27T15:19:52.217Z,4.25
2023-02-27T15:22:55.162Z,4.08
2023-02-27T15:25:59.581Z,4.18
2023-02-27T15:29:04.460Z,4.18
2023-02-27T15:32:15.989Z,4.08
2023-02-27T15:35:25.492Z,4.01
2023-02-27T15:38:30.752Z,4.02
2023-02-27T15:41:34.173Z,3.97
2023-02-27T15:44:45.537Z,3.86
2023-02-27T15:47:48.591Z,3.76
2023-02-27T15:50:58.358Z,3.63
2023-02-27T15:54:01.284Z,3.53
2023-02-27T15:57:05.219Z,3.58
2023-02-27T16:00:08.928Z,3.46
2023-02-27T16:03:22.143Z,3.51
2023-02-27T16:06:40.895Z,3.55
2023-02-27T16:09:47.028Z,3.38
2023-02-27T16:12:51.576Z,3.38
2023-02-27T16:16:21.939Z,3.33
2023-02-27T16:19:30.133Z,3.33
2023-02-27T16:22:33.699Z,3.30
2023-02-27T16:25:37.249Z,3.25
2023-02-27T16:29:04.165Z,3.22
2023-02-27T16:32:30.851Z,3.08
2023-02-27T16:35:35.432Z,3.02
2023-02-27T16:38:38.831Z,2.88
2023-02-27T16:41:42.001Z,2.77
2023-02-27T16:44:45.006Z,2.73
2023-02-27T16:47:55.427Z,2.74
2023-02-27T16:50:58.613Z,2.68
2023-02-27T16:54:01.313Z,2.67
2023-02-27T16:57:04.607Z,2.66
2023-02-27T17:00:07.880Z,2.62
2023-02-27T17:03:12.026Z,2.62
2023-02-27T17:06:15.178Z,2.58
2023-02-27T17:09:18.324Z,2.55
2023-02-27T17:12:21.264Z,2.47
2023-02-27T17:15:27.333Z,2.35
2023-02-27T17:18:30.278Z,2.37
2023-02-27T17:21:35.061Z,2.34
2023-02-27T17:24:38.569Z,2.35
2023-02-27T17:27:44.892Z,2.31
2023-02-27T17:30:48.857Z,2.34
2023-02-27T17:33:56.642Z,2.34
2023-02-27T17:36:59.440Z,2.24
2023-02-27T17:40:04.712Z,2.30
2023-02-27T17:43:07.519Z,2.27
2023-02-27T17:46:12.000Z,2.28
2023-02-27T17:49:14.737Z,2.26
2023-02-27T17:52:17.688Z,2.27
2023-02-27T17:55:20.511Z,2.29
2023-02-27T17:58:23.981Z,2.19
2023-02-27T18:01:27.550Z,2.26
2023-02-27T18:04:30.760Z,2.20
2023-02-27T18:07:34.751Z,2.12
2023-02-27T18:10:37.853Z,2.04
2023-02-27T18:13:41.461Z,1.99
2023-02-27T18:16:45.120Z,1.93
2023-02-27T18:19:48.098Z,1.89
2023-02-27T18:22:51.042Z,1.80
2023-02-27T18:25:56.081Z,1.71
2023-02-27T18:29:09.299Z,1.60
2023-02-27T18:32:13.057Z,1.55
2023-02-27T18:35:16.664Z,1.39
2023-02-27T18:38:19.389Z,1.34
2023-02-27T18:41:22.443Z,1.22
2023-02-27T18:44:25.248Z,1.03
2023-02-27T18:47:30.243Z,0.88
2023-02-27T18:50:33.164Z,0.63
2023-02-27T18:53:36.213Z,0.56
2023-02-27T18:56:38.986Z,0.46
2023-02-27T18:59:42.056Z,0.24
2023-02-27T19:02:48.015Z,0.10
2023-02-27T19:05:51.288Z,0.09
2023-02-27T19:08:54.641Z,0.07
2023-02-27T19:11:58.355Z,-0.06
2023-02-27T19:15:01.898Z,0.03
2023-02-27T19:18:06.917Z,0.00
2023-02-27T19:21:09.742Z,-0.06
2023-02-27T19:24:13.931Z,-0.06
2023-02-27T19:27:17.315Z,-0.09
2023-02-27T19:30:20.653Z,-0.15
2023-02-27T19:33:23.490Z,-0.13
2023-02-27T19:36:28.934Z,-0.11
2023-02-27T19:39:31.820Z,-0.08
2023-02-27T19:42:34.793Z,-0.04
2023-02-27T19:45:41.253Z,0.01
2023-02-27T19:48:45.467Z,0.02
2023-02-27T19:51:48.805Z,0.04
2023-02-27T19:54:51.869Z,0.05
2023-02-27T19:57:54.728Z,-0.04
2023-02-27T20:00:57.854Z,-0.03
2023-02-27T20:04:01.985Z,0.03
2023-02-27T20:07:04.808Z,-0.06
2023-02-27T20:10:08.534Z,0.04
2023-02-27T20:13:11.406Z,0.02
2023-02-27T20:16:17.689Z,0.02
2023-02-27T20:19:22.595Z,-0.02
2023-02-27T20:22:26.096Z,0.07
2023-02-27T20:25:30.064Z,-0.01
2023-02-27T20:28:33.053Z,0.04
2023-02-27T20:31:38.038Z,0.14
2023-02-27T20:34:41.261Z,0.14
2023-02-27T20:37:43.952Z,0.18
2023-02-27T20:40:46.933Z,0.26
2023-02-27T20:43:50.174Z,0.19
2023-02-27T20:46:53.498Z,0.34
2023-02-27T20:49:56.210Z,0.42
2023-02-27T20:52:59.250Z,0.40
2023-02-27T20:56:02.041Z,0.48
2023-02-27T20:59:06.936Z,0.48
2023-02-27T21:02:10.713Z,0.53
2023-02-27T21:05:13.930Z,0.56
2023-02-27T21:08:17.329Z,0.56
2023-02-27T21:11:29.493Z,0.67
2023-02-27T21:14:33.142Z,0.72
2023-02-27T21:17:36.200Z,0.78
2023-02-27T21:20:45.037Z,0.81
2023-02-27T21:23:47.993Z,0.85
2023-02-27T21:26:50.757Z,0.90
2023-02-27T21:29:53.850Z,0.91
2023-02-27T21:32:57.839Z,0.96
2023-02-27T21:36:00.905Z,1.10
2023-02-27T21:39:06.743Z,1.17
2023-02-27T21:42:09.912Z,1.23
2023-02-27T21:45:12.648Z,1.29
2023-02-27T21:48:16.179Z,1.34
2023-02-27T21:51:32.950Z,1.36
2023-02-27T21:54:40.011Z,1.38
2023-02-27T21:57:42.655Z,1.41
2023-02-27T22:00:45.656Z,1.41
2023-02-27T22:03:52.497Z,1.40
2023-02-27T22:06:55.186Z,1.40
2023-02-27T22:09:58.151Z,1.39
2023-02-27T22:13:00.741Z,1.39
2023-02-27T22:16:09.487Z,1.37
2023-02-27T22:19:19.626Z,1.39
2023-02-27T22:22:22.965Z,1.41
2023-02-27T22:25:25.664Z,1.40
2023-02-27T22:28:31.106Z,1.39
2023-02-27T22:31:36.968Z,1.45
2023-02-27T22:34:40.349Z,1.39
2023-02-27T22:37:43.385Z,1.37
2023-02-27T22:40:46.364Z,1.41
2023-02-27T22:43:49.455Z,1.37
2023-02-27T22:46:53.106Z,1.37
2023-02-27T22:49:55.853Z,1.37
2023-02-27T22:52:58.941Z,1.32
2023-02-27T22:56:01.615Z,1.24
2023-02-27T22:59:05.936Z,1.25
2023-02-27T23:02:10.237Z,1.25
2023-02-27T23:05:13.772Z,1.22
2023-02-27T23:08:16.852Z,1.16
2023-02-27T23:11:20.908Z,1.11
2023-02-27T23:14:24.029Z,1.03
2023-02-27T23:17:27.065Z,0.93
2023-02-27T23:20:29.797Z,0.77
2023-02-27T23:23:32.790Z,0.64
2023-02-27T23:26:37.599Z,0.56
2023-02-27T23:29:40.670Z,0.38
2023-02-27T23:32:47.248Z,0.36
2023-02-27T23:35:50.722Z,0.26
2023-02-27T23:38:53.669Z,0.13
2023-02-27T23:41:56.598Z,-0.05
2023-02-27T23:45:11.658Z,-0.04
2023-02-27T23:48:14.721Z,0.00
2023-02-27T23:51:17.420Z,0.02
2023-02-27T23:54:20.444Z,-0.06
2023-02-27T23:57:23.186Z,-0.14
